createdAt,value
2022-11-15T00:04:47.377Z,3.73
2022-11-15T00:09:48.869Z,3.64
2022-11-15T00:14:50.375Z,3.72
2022-11-15T00:19:51.910Z,3.72
2022-11-15T00:24:53.411Z,3.70
2022-11-15T00:29:54.946Z,3.62
2022-11-15T00:34:56.449Z,3.58
2022-11-15T00:39:57.951Z,3.56
2022-11-15T00:44:59.438Z,3.66
2022-11-15T00:50:00.963Z,3.67
2022-11-15T00:55:02.714Z,3.79
2022-11-15T01:00:04.758Z,3.83
2022-11-15T01:05:08.081Z,3.86
2022-11-15T01:10:10.766Z,4.00
2022-11-15T01:15:12.314Z,4.11
2022-11-15T01:20:13.819Z,4.26
2022-11-15T01:25:15.357Z,4.32
2022-11-15T01:30:16.907Z,4.38
2022-11-15T01:35:18.409Z,4.30
2022-11-15T01:40:19.877Z,4.37
2022-11-15T01:45:21.474Z,4.32
2022-11-15T01:50:32.866Z,4.32
2022-11-15T01:55:34.457Z,4.51
2022-11-15T02:00:36.245Z,4.59
2022-11-15T02:05:38.424Z,4.62
2022-11-15T02:10:39.901Z,4.72
2022-11-15T02:16:01.782Z,4.73
2022-11-15T02:21:18.964Z,4.69
2022-11-15T02:27:07.847Z,4.46
2022-11-15T02:32:24.583Z,4.39
2022-11-15T02:37:36.741Z,4.41
2022-11-15T02:43:08.105Z,4.45
2022-11-15T02:48:12.091Z,4.32
2022-11-15T02:53:15.620Z,4.20
2022-11-15T02:58:47.396Z,4.21
2022-11-15T03:04:19.011Z,4.05
2022-11-15T03:09:43.439Z,3.88
2022-11-15T03:14:51.499Z,3.72
2022-11-15T03:19:59.749Z,3.67
2022-11-15T03:25:06.899Z,3.67
2022-11-15T03:30:09.979Z,3.67
2022-11-15T03:35:20.403Z,3.59
2022-11-15T03:40:34.582Z,3.50
2022-11-15T03:45:50.102Z,3.44
2022-11-15T03:50:52.119Z,3.38
2022-11-15T03:55:53.680Z,3.28
2022-11-15T04:00:55.536Z,3.27
2022-11-15T04:05:57.152Z,3.27
2022-11-15T04:10:58.960Z,3.19
2022-11-15T04:16:00.538Z,3.29
2022-11-15T04:21:20.734Z,3.25
2022-11-15T04:26:24.030Z,3.15
2022-11-15T04:31:25.565Z,3.10
2022-11-15T04:36:45.692Z,3.09
2022-11-15T04:41:47.160Z,3.13
2022-11-15T04:46:48.637Z,3.12
2022-11-15T04:51:50.148Z,3.33
2022-11-15T04:56:51.710Z,3.45
2022-11-15T05:01:53.250Z,3.49
2022-11-15T05:06:54.797Z,3.50
2022-11-15T05:11:56.514Z,3.27
2022-11-15T05:16:57.954Z,3.16
2022-11-15T05:21:59.434Z,3.12
2022-11-15T05:27:00.955Z,3.20
2022-11-15T05:32:06.298Z,3.23
2022-11-15T05:37:08.456Z,3.64
2022-11-15T05:42:15.432Z,3.78
2022-11-15T05:47:21.346Z,3.92
2022-11-15T05:52:26.517Z,3.98
2022-11-15T05:57:28.023Z,4.11
2022-11-15T06:02:29.649Z,4.21
2022-11-15T06:07:31.743Z,4.28
2022-11-15T06:12:33.289Z,4.38
2022-11-15T06:17:34.766Z,4.41
2022-11-15T06:22:36.259Z,4.45
2022-11-15T06:27:37.872Z,4.49
2022-11-15T06:32:39.422Z,4.53
2022-11-15T06:37:41.505Z,4.63
2022-11-15T06:42:43.058Z,4.68
2022-11-15T06:47:48.290Z,4.79
2022-11-15T06:52:49.919Z,4.87
2022-11-15T06:57:53.059Z,4.93
2022-11-15T07:02:54.559Z,5.01
2022-11-15T07:07:57.751Z,5.07
2022-11-15T07:12:59.251Z,5.16
2022-11-15T07:18:04.009Z,5.20
2022-11-15T07:23:06.491Z,5.25
2022-11-15T07:28:08.049Z,5.32
2022-11-15T07:33:09.922Z,5.43
2022-11-15T07:38:11.454Z,5.51
2022-11-15T07:43:14.165Z,5.61
2022-11-15T07:48:15.712Z,5.75
2022-11-15T07:53:17.297Z,5.84
2022-11-15T07:58:18.848Z,5.88
2022-11-15T08:03:20.505Z,5.90
2022-11-15T08:08:22.004Z,6.04
2022-11-15T08:13:23.675Z,6.07
2022-11-15T08:18:25.411Z,6.07
2022-11-15T08:23:27.038Z,6.12
2022-11-15T08:28:29.734Z,6.12
2022-11-15T08:33:34.052Z,6.18
2022-11-15T08:38:35.950Z,6.25
2022-11-15T08:43:37.549Z,6.35
2022-11-15T08:48:39.118Z,6.43
2022-11-15T08:53:40.987Z,6.53
2022-11-15T08:58:43.555Z,6.59
2022-11-15T09:03:45.247Z,6.66
2022-11-15T09:08:48.158Z,6.72
2022-11-15T09:13:50.717Z,6.71
2022-11-15T09:18:53.134Z,6.75
2022-11-15T09:23:54.959Z,6.80
2022-11-15T09:28:56.826Z,6.88
2022-11-15T09:33:58.431Z,7.00
2022-11-15T09:39:01.035Z,7.05
2022-11-15T09:44:10.303Z,7.09
2022-11-15T09:49:16.105Z,7.14
2022-11-15T09:54:53.806Z,7.23
2022-11-15T10:05:48.127Z,7.40
2022-11-15T10:11:15.740Z,7.45
2022-11-15T10:16:42.635Z,7.50
2022-11-15T10:21:56.257Z,7.60
2022-11-15T10:26:57.966Z,7.78
2022-11-15T10:31:59.465Z,7.91
2022-11-15T10:37:04.447Z,7.97
2022-11-15T10:42:28.706Z,8.10
2022-11-15T10:47:37.822Z,8.14
2022-11-15T10:52:47.366Z,8.17
2022-11-15T10:57:53.326Z,8.22
2022-11-15T11:02:59.383Z,8.31
2022-11-15T11:08:05.392Z,8.36
2022-11-15T11:13:24.275Z,8.40
2022-11-15T11:18:43.419Z,8.46
2022-11-15T11:24:05.518Z,8.50
2022-11-15T11:29:22.301Z,8.50
2022-11-15T11:34:38.848Z,8.45
2022-11-15T11:39:55.261Z,8.45
2022-11-15T11:45:15.645Z,8.45
2022-11-15T11:50:24.190Z,8.47
2022-11-15T11:55:43.668Z,8.47
2022-11-15T12:01:08.580Z,8.49
2022-11-15T12:06:23.087Z,8.54
2022-11-15T12:11:38.175Z,8.57
2022-11-15T12:16:43.240Z,8.54
2022-11-15T12:21:56.534Z,8.61
2022-11-15T12:27:20.528Z,8.63
2022-11-15T12:32:35.896Z,8.64
2022-11-15T12:37:38.639Z,8.68
2022-11-15T12:42:57.989Z,8.74
2022-11-15T12:48:37.386Z,8.78
2022-11-15T12:53:39.332Z,8.88
2022-11-15T12:58:47.251Z,8.97
2022-11-15T13:04:16.038Z,9.09
2022-11-15T13:09:30.030Z,9.21
2022-11-15T13:14:54.299Z,9.33
2022-11-15T13:20:08.463Z,9.39
2022-11-15T13:25:27.982Z,9.42
2022-11-15T13:30:31.959Z,9.43
2022-11-15T13:35:37.195Z,9.47
2022-11-15T13:40:38.882Z,9.52
2022-11-15T13:45:40.395Z,9.57
2022-11-15T13:50:42.094Z,9.59
2022-11-15T13:55:43.659Z,9.59
2022-11-15T14:00:46.375Z,9.58
2022-11-15T14:06:14.097Z,9.55
2022-11-15T14:11:20.550Z,9.46
2022-11-15T14:16:34.660Z,9.54
2022-11-15T14:21:36.942Z,9.50
2022-11-15T14:26:38.637Z,9.51
2022-11-15T14:31:43.951Z,9.50
2022-11-15T14:36:45.693Z,9.39
2022-11-15T14:41:47.203Z,9.36
2022-11-15T14:46:49.400Z,9.30
2022-11-15T14:51:50.994Z,9.27
2022-11-15T14:56:52.560Z,9.23
2022-11-15T15:01:54.193Z,9.18
2022-11-15T15:06:55.910Z,9.14
2022-11-15T15:11:59.747Z,9.15
2022-11-15T15:17:03.592Z,9.10
2022-11-15T15:22:05.621Z,9.05
2022-11-15T15:27:07.125Z,9.03
2022-11-15T15:32:10.032Z,8.98
2022-11-15T15:37:25.077Z,8.96
2022-11-15T15:42:26.560Z,9.02
2022-11-15T15:47:28.035Z,8.96
2022-11-15T15:52:29.545Z,8.98
2022-11-15T15:57:31.036Z,9.05
2022-11-15T16:02:37.658Z,9.04
2022-11-15T16:07:44.296Z,9.02
2022-11-15T16:12:46.016Z,9.04
2022-11-15T16:17:55.107Z,9.18
2022-11-15T16:22:56.698Z,9.09
2022-11-15T16:27:58.240Z,9.08
2022-11-15T16:32:59.909Z,9.03
2022-11-15T16:38:01.691Z,8.90
2022-11-15T16:43:04.480Z,8.66
2022-11-15T16:48:06.342Z,8.63
2022-11-15T16:53:07.822Z,8.56
2022-11-15T16:58:10.527Z,8.46
2022-11-15T17:03:12.083Z,8.40
2022-11-15T17:08:13.665Z,8.40
2022-11-15T17:13:15.256Z,8.47
2022-11-15T17:18:16.838Z,8.35
2022-11-15T17:23:18.323Z,8.27
2022-11-15T17:28:19.819Z,8.25
2022-11-15T17:33:21.346Z,8.21
2022-11-15T17:38:22.902Z,8.28
2022-11-15T17:43:24.581Z,8.27
2022-11-15T17:48:26.544Z,8.40
2022-11-15T17:53:32.575Z,8.31
2022-11-15T17:58:35.075Z,8.19
2022-11-15T18:03:37.556Z,8.12
2022-11-15T18:08:41.334Z,8.05
2022-11-15T18:13:49.466Z,8.11
2022-11-15T18:18:54.876Z,8.17
2022-11-15T18:23:59.563Z,8.21
2022-11-15T18:29:05.394Z,8.27
2022-11-15T18:34:06.928Z,8.19
2022-11-15T18:39:16.149Z,8.14
2022-11-15T18:44:18.103Z,8.22
2022-11-15T18:49:20.359Z,8.12
2022-11-15T18:54:24.496Z,8.11
2022-11-15T18:59:29.959Z,8.06
2022-11-15T19:04:31.439Z,8.02
2022-11-15T19:09:33.858Z,7.92
2022-11-15T19:14:35.358Z,7.93
2022-11-15T19:19:36.889Z,7.87
2022-11-15T19:24:38.403Z,7.91
2022-11-15T19:29:40.534Z,7.92
2022-11-15T19:34:42.136Z,7.88
2022-11-15T19:39:43.613Z,7.90
2022-11-15T19:44:45.255Z,7.96
2022-11-15T19:49:46.754Z,7.97
2022-11-15T19:54:48.265Z,8.22
2022-11-15T19:59:49.747Z,8.28
2022-11-15T20:04:51.287Z,8.34
2022-11-15T20:09:53.820Z,8.46
2022-11-15T20:14:55.302Z,8.46
2022-11-15T20:19:58.410Z,8.54
2022-11-15T20:24:59.951Z,8.56
2022-11-15T20:30:01.736Z,8.59
2022-11-15T20:35:03.460Z,8.57
2022-11-15T20:40:05.432Z,8.54
2022-11-15T20:45:07.484Z,8.59
2022-11-15T20:50:35.385Z,8.59
2022-11-15T20:55:30.762Z,8.63
2022-11-15T21:00:32.350Z,8.67
2022-11-15T21:05:41.834Z,8.66
2022-11-15T21:11:01.708Z,8.69
2022-11-15T21:16:04.251Z,8.59
2022-11-15T21:21:05.827Z,8.56
2022-11-15T21:26:07.380Z,8.59
2022-11-15T21:31:09.154Z,8.54
2022-11-15T21:36:12.678Z,8.46
2022-11-15T21:41:14.252Z,8.55
2022-11-15T21:46:15.788Z,8.54
2022-11-15T21:51:17.405Z,8.51
2022-11-15T21:56:18.872Z,8.52
2022-11-15T22:01:40.208Z,8.50
2022-11-15T22:06:41.790Z,8.45
2022-11-15T22:11:43.258Z,8.46
2022-11-15T22:16:44.876Z,8.43
2022-11-15T22:21:49.813Z,8.40
2022-11-15T22:26:51.358Z,8.38
2022-11-15T22:31:52.859Z,8.30
2022-11-15T22:37:19.301Z,8.26
2022-11-15T22:42:19.430Z,8.22
2022-11-15T22:47:25.500Z,8.20
2022-11-15T22:52:27.213Z,8.16
2022-11-15T22:57:28.765Z,8.15
2022-11-15T23:02:30.378Z,8.16
2022-11-15T23:07:34.040Z,8.12
2022-11-15T23:12:54.217Z,8.07
2022-11-15T23:17:56.204Z,8.10
2022-11-15T23:22:59.211Z,8.06
2022-11-15T23:28:04.476Z,8.07
2022-11-15T23:33:24.410Z,7.99
2022-11-15T23:38:26.303Z,8.00
2022-11-15T23:43:27.841Z,7.98
2022-11-15T23:48:29.606Z,7.99
2022-11-15T23:53:31.360Z,7.93
2022-11-15T23:58:33.894Z,7.91
